sensor_id;sensor_type;location;lat;lon;timestamp;temperature;humidity
18741;DHT22;9499;52.472;13.448;2023-11-19T00:02:22;4.80;1.00
18741;DHT22;9499;52.472;13.448;2023-11-19T00:04:48;4.80;1.00
18741;DHT22;9499;52.472;13.448;2023-11-19T00:07:14;4.90;1.00
18741;DHT22;9499;52.472;13.448;2023-11-19T00:09:41;4.80;1.00
18741;DHT22;9499;52.472;13.448;2023-11-19T00:12:09;4.80;1.00
18741;DHT22;9499;52.472;13.448;2023-11-19T00:14:36;4.80;1.00
18741;DHT22;9499;52.472;13.448;2023-11-19T00:17:03;4.80;1.00
18741;DHT22;9499;52.472;13.448;2023-11-19T00:19:30;4.80;1.00
18741;DHT22;9499;52.472;13.448;2023-11-19T00:21:56;4.80;1.00
18741;DHT22;9499;52.472;13.448;2023-11-19T00:24:27;4.80;1.00
18741;DHT22;9499;52.472;13.448;2023-11-19T00:26:54;4.80;1.00
18741;DHT22;9499;52.472;13.448;2023-11-19T00:29:20;4.90;1.00
18741;DHT22;9499;52.472;13.448;2023-11-19T00:31:48;4.80;1.00
18741;DHT22;9499;52.472;13.448;2023-11-19T00:34:15;4.90;1.00
18741;DHT22;9499;52.472;13.448;2023-11-19T00:36:41;4.90;1.00
18741;DHT22;9499;52.472;13.448;2023-11-19T00:39:10;4.90;1.00
18741;DHT22;9499;52.472;13.448;2023-11-19T00:41:36;4.90;1.00
18741;DHT22;9499;52.472;13.448;2023-11-19T00:44:03;4.90;1.00
18741;DHT22;9499;52.472;13.448;2023-11-19T00:46:29;4.90;1.00
18741;DHT22;9499;52.472;13.448;2023-11-19T00:48:58;4.90;1.00
18741;DHT22;9499;52.472;13.448;2023-11-19T00:51:26;4.90;1.00
18741;DHT22;9499;52.472;13.448;2023-11-19T00:53:53;4.90;1.00
18741;DHT22;9499;52.472;13.448;2023-11-19T00:56:20;4.90;1.00
18741;DHT22;9499;52.472;13.448;2023-11-19T00:58:46;4.80;1.00
18741;DHT22;9499;52.472;13.448;2023-11-19T01:01:13;4.80;1.00
18741;DHT22;9499;52.472;13.448;2023-11-19T01:03:39;4.80;1.00
18741;DHT22;9499;52.472;13.448;2023-11-19T01:06:08;4.80;1.00
18741;DHT22;9499;52.472;13.448;2023-11-19T01:08:34;4.90;1.00
18741;DHT22;9499;52.472;13.448;2023-11-19T01:11:01;4.90;1.00
18741;DHT22;9499;52.472;13.448;2023-11-19T01:13:27;4.80;1.00
18741;DHT22;9499;52.472;13.448;2023-11-19T01:15:54;4.90;1.00
18741;DHT22;9499;52.472;13.448;2023-11-19T01:18:21;4.90;1.00
18741;DHT22;9499;52.472;13.448;2023-11-19T01:20:48;4.90;1.00
18741;DHT22;9499;52.472;13.448;2023-11-19T01:23:16;4.90;1.00
18741;DHT22;9499;52.472;13.448;2023-11-19T01:25:42;4.90;1.00
18741;DHT22;9499;52.472;13.448;2023-11-19T01:28:09;4.90;1.00
18741;DHT22;9499;52.472;13.448;2023-11-19T01:30:35;4.90;1.00
18741;DHT22;9499;52.472;13.448;2023-11-19T01:33:02;4.90;1.00
18741;DHT22;9499;52.472;13.448;2023-11-19T01:35:28;4.90;1.00
18741;DHT22;9499;52.472;13.448;2023-11-19T01:37:54;4.90;1.00
18741;DHT22;9499;52.472;13.448;2023-11-19T01:40:22;4.90;1.00
18741;DHT22;9499;52.472;13.448;2023-11-19T01:42:49;5.00;1.00
18741;DHT22;9499;52.472;13.448;2023-11-19T01:45:22;5.00;1.00
18741;DHT22;9499;52.472;13.448;2023-11-19T01:47:53;5.00;1.00
18741;DHT22;9499;52.472;13.448;2023-11-19T01:50:20;5.00;1.00
18741;DHT22;9499;52.472;13.448;2023-11-19T01:52:46;5.00;1.00
18741;DHT22;9499;52.472;13.448;2023-11-19T01:55:13;5.00;1.00
18741;DHT22;9499;52.472;13.448;2023-11-19T01:57:41;5.00;1.00
18741;DHT22;9499;52.472;13.448;2023-11-19T02:00:09;5.00;1.00
18741;DHT22;9499;52.472;13.448;2023-11-19T02:02:37;5.00;1.00
18741;DHT22;9499;52.472;13.448;2023-11-19T02:05:05;5.00;1.00
18741;DHT22;9499;52.472;13.448;2023-11-19T02:07:32;5.00;1.00
18741;DHT22;9499;52.472;13.448;2023-11-19T02:09:58;5.00;1.00
18741;DHT22;9499;52.472;13.448;2023-11-19T02:12:26;5.00;1.00
18741;DHT22;9499;52.472;13.448;2023-11-19T02:14:55;5.00;1.00
18741;DHT22;9499;52.472;13.448;2023-11-19T02:17:25;5.00;1.00
18741;DHT22;9499;52.472;13.448;2023-11-19T02:19:52;5.00;1.00
18741;DHT22;9499;52.472;13.448;2023-11-19T02:22:19;5.00;1.00
18741;DHT22;9499;52.472;13.448;2023-11-19T02:24:47;5.00;1.00
18741;DHT22;9499;52.472;13.448;2023-11-19T02:27:23;5.00;1.00
18741;DHT22;9499;52.472;13.448;2023-11-19T02:29:53;5.00;1.00
18741;DHT22;9499;52.472;13.448;2023-11-19T02:32:19;5.00;1.00
18741;DHT22;9499;52.472;13.448;2023-11-19T02:34:46;4.90;1.00
18741;DHT22;9499;52.472;13.448;2023-11-19T02:37:12;4.90;1.00
18741;DHT22;9499;52.472;13.448;2023-11-19T02:39:40;4.90;1.00
18741;DHT22;9499;52.472;13.448;2023-11-19T02:42:07;4.90;1.00
18741;DHT22;9499;52.472;13.448;2023-11-19T02:44:33;5.00;1.00
18741;DHT22;9499;52.472;13.448;2023-11-19T02:47:01;5.00;1.00
18741;DHT22;9499;52.472;13.448;2023-11-19T02:49:28;5.10;1.00
18741;DHT22;9499;52.472;13.448;2023-11-19T02:51:55;5.10;1.00
18741;DHT22;9499;52.472;13.448;2023-11-19T02:54:21;5.10;1.00
18741;DHT22;9499;52.472;13.448;2023-11-19T02:56:52;5.10;1.00
18741;DHT22;9499;52.472;13.448;2023-11-19T02:59:24;5.10;1.00
18741;DHT22;9499;52.472;13.448;2023-11-19T03:01:53;5.10;1.00
18741;DHT22;9499;52.472;13.448;2023-11-19T03:04:21;5.20;1.00
18741;DHT22;9499;52.472;13.448;2023-11-19T03:06:48;5.20;1.00
18741;DHT22;9499;52.472;13.448;2023-11-19T03:09:15;5.20;1.00
18741;DHT22;9499;52.472;13.448;2023-11-19T03:11:41;5.20;1.00
18741;DHT22;9499;52.472;13.448;2023-11-19T03:14:08;5.20;1.00
18741;DHT22;9499;52.472;13.448;2023-11-19T03:16:34;5.20;1.00
18741;DHT22;9499;52.472;13.448;2023-11-19T03:19:00;5.20;1.00
18741;DHT22;9499;52.472;13.448;2023-11-19T03:21:29;5.20;1.00
18741;DHT22;9499;52.472;13.448;2023-11-19T03:23:56;5.20;1.00
18741;DHT22;9499;52.472;13.448;2023-11-19T03:26:25;5.20;1.00
18741;DHT22;9499;52.472;13.448;2023-11-19T03:28:52;5.20;1.00
18741;DHT22;9499;52.472;13.448;2023-11-19T03:31:19;5.20;1.00
18741;DHT22;9499;52.472;13.448;2023-11-19T03:33:46;5.20;1.00
18741;DHT22;9499;52.472;13.448;2023-11-19T03:36:12;5.20;1.00
18741;DHT22;9499;52.472;13.448;2023-11-19T03:38:40;5.20;1.00
18741;DHT22;9499;52.472;13.448;2023-11-19T03:41:11;5.20;1.00
18741;DHT22;9499;52.472;13.448;2023-11-19T03:43:38;5.10;1.00
18741;DHT22;9499;52.472;13.448;2023-11-19T03:46:04;5.10;28.30
18741;DHT22;9499;52.472;13.448;2023-11-19T03:48:31;5.10;71.40
18741;DHT22;9499;52.472;13.448;2023-11-19T03:50:58;5.10;99.90
18741;DHT22;9499;52.472;13.448;2023-11-19T03:53:24;5.00;99.90
18741;DHT22;9499;52.472;13.448;2023-11-19T03:55:52;5.00;99.90
18741;DHT22;9499;52.472;13.448;2023-11-19T03:58:18;4.90;99.90
18741;DHT22;9499;52.472;13.448;2023-11-19T04:00:45;4.90;99.90
18741;DHT22;9499;52.472;13.448;2023-11-19T04:03:11;4.90;99.90
18741;DHT22;9499;52.472;13.448;2023-11-19T04:05:38;4.80;99.90
18741;DHT22;9499;52.472;13.448;2023-11-19T04:08:04;4.80;99.90
18741;DHT22;9499;52.472;13.448;2023-11-19T04:10:31;4.80;99.90
18741;DHT22;9499;52.472;13.448;2023-11-19T04:12:58;4.80;99.90
18741;DHT22;9499;52.472;13.448;2023-11-19T04:15:25;4.70;99.90
18741;DHT22;9499;52.472;13.448;2023-11-19T04:17:51;4.70;99.90
18741;DHT22;9499;52.472;13.448;2023-11-19T04:20:18;4.80;99.90
18741;DHT22;9499;52.472;13.448;2023-11-19T04:22:44;4.70;99.90
18741;DHT22;9499;52.472;13.448;2023-11-19T04:25:11;4.80;99.90
18741;DHT22;9499;52.472;13.448;2023-11-19T04:27:37;4.70;99.90
18741;DHT22;9499;52.472;13.448;2023-11-19T04:30:06;4.70;99.90
18741;DHT22;9499;52.472;13.448;2023-11-19T04:32:36;4.70;99.90
18741;DHT22;9499;52.472;13.448;2023-11-19T04:35:02;4.70;99.90
18741;DHT22;9499;52.472;13.448;2023-11-19T04:37:29;4.70;99.90
18741;DHT22;9499;52.472;13.448;2023-11-19T04:39:55;4.70;99.90
18741;DHT22;9499;52.472;13.448;2023-11-19T04:42:22;4.70;99.90
18741;DHT22;9499;52.472;13.448;2023-11-19T04:44:49;4.70;99.90
18741;DHT22;9499;52.472;13.448;2023-11-19T04:47:17;4.70;99.90
18741;DHT22;9499;52.472;13.448;2023-11-19T04:49:43;4.80;99.90
18741;DHT22;9499;52.472;13.448;2023-11-19T04:52:10;4.80;99.90
18741;DHT22;9499;52.472;13.448;2023-11-19T04:54:40;4.70;99.90
18741;DHT22;9499;52.472;13.448;2023-11-19T04:57:07;4.70;99.90
18741;DHT22;9499;52.472;13.448;2023-11-19T04:59:35;4.70;99.90
18741;DHT22;9499;52.472;13.448;2023-11-19T05:02:01;4.70;99.90
18741;DHT22;9499;52.472;13.448;2023-11-19T05:04:30;4.80;99.90
18741;DHT22;9499;52.472;13.448;2023-11-19T05:06:57;4.80;99.90
18741;DHT22;9499;52.472;13.448;2023-11-19T05:09:23;4.80;99.90
18741;DHT22;9499;52.472;13.448;2023-11-19T05:11:50;4.80;99.90
18741;DHT22;9499;52.472;13.448;2023-11-19T05:14:16;4.70;99.90
18741;DHT22;9499;52.472;13.448;2023-11-19T05:16:44;4.70;99.90
18741;DHT22;9499;52.472;13.448;2023-11-19T05:19:10;4.70;99.90
18741;DHT22;9499;52.472;13.448;2023-11-19T05:21:38;4.70;99.90
18741;DHT22;9499;52.472;13.448;2023-11-19T05:24:05;4.70;99.90
18741;DHT22;9499;52.472;13.448;2023-11-19T05:26:32;4.70;99.90
18741;DHT22;9499;52.472;13.448;2023-11-19T05:28:58;4.70;99.90
18741;DHT22;9499;52.472;13.448;2023-11-19T05:31:24;4.60;99.90
18741;DHT22;9499;52.472;13.448;2023-11-19T05:33:52;4.60;99.90
18741;DHT22;9499;52.472;13.448;2023-11-19T05:36:18;4.60;99.90
18741;DHT22;9499;52.472;13.448;2023-11-19T05:38:46;4.60;99.90
18741;DHT22;9499;52.472;13.448;2023-11-19T05:41:13;4.60;99.90
18741;DHT22;9499;52.472;13.448;2023-11-19T05:43:39;4.60;99.90
18741;DHT22;9499;52.472;13.448;2023-11-19T05:46:06;4.60;99.90
18741;DHT22;9499;52.472;13.448;2023-11-19T05:48:34;4.60;99.90
18741;DHT22;9499;52.472;13.448;2023-11-19T05:51:00;4.60;99.90
18741;DHT22;9499;52.472;13.448;2023-11-19T05:53:28;4.70;99.90
18741;DHT22;9499;52.472;13.448;2023-11-19T05:55:56;4.70;99.90
18741;DHT22;9499;52.472;13.448;2023-11-19T05:58:23;4.60;99.90
18741;DHT22;9499;52.472;13.448;2023-11-19T06:00:51;4.60;99.90
18741;DHT22;9499;52.472;13.448;2023-11-19T06:03:17;4.70;99.90
18741;DHT22;9499;52.472;13.448;2023-11-19T06:05:44;4.70;99.90
18741;DHT22;9499;52.472;13.448;2023-11-19T06:08:11;4.70;99.90
18741;DHT22;9499;52.472;13.448;2023-11-19T06:10:40;4.70;99.90
18741;DHT22;9499;52.472;13.448;2023-11-19T06:13:07;4.70;99.90
18741;DHT22;9499;52.472;13.448;2023-11-19T06:15:35;4.70;99.90
18741;DHT22;9499;52.472;13.448;2023-11-19T06:18:02;4.70;99.90
18741;DHT22;9499;52.472;13.448;2023-11-19T06:20:29;4.70;99.90
18741;DHT22;9499;52.472;13.448;2023-11-19T06:22:57;4.70;99.90
18741;DHT22;9499;52.472;13.448;2023-11-19T06:25:23;4.70;99.90
18741;DHT22;9499;52.472;13.448;2023-11-19T06:27:50;4.80;99.90
18741;DHT22;9499;52.472;13.448;2023-11-19T06:30:18;4.80;99.90
18741;DHT22;9499;52.472;13.448;2023-11-19T06:32:45;4.80;99.90
18741;DHT22;9499;52.472;13.448;2023-11-19T06:35:12;4.80;99.90
18741;DHT22;9499;52.472;13.448;2023-11-19T06:37:40;4.80;99.90
18741;DHT22;9499;52.472;13.448;2023-11-19T06:40:08;4.80;99.90
18741;DHT22;9499;52.472;13.448;2023-11-19T06:42:35;4.80;99.90
18741;DHT22;9499;52.472;13.448;2023-11-19T06:45:01;4.80;99.90
18741;DHT22;9499;52.472;13.448;2023-11-19T06:47:29;4.80;99.90
18741;DHT22;9499;52.472;13.448;2023-11-19T06:49:56;4.80;99.90
18741;DHT22;9499;52.472;13.448;2023-11-19T06:52:23;4.80;99.90
18741;DHT22;9499;52.472;13.448;2023-11-19T06:54:50;4.80;99.90
18741;DHT22;9499;52.472;13.448;2023-11-19T06:57:16;4.90;99.90
18741;DHT22;9499;52.472;13.448;2023-11-19T06:59:43;4.80;99.90
18741;DHT22;9499;52.472;13.448;2023-11-19T07:02:09;4.90;99.90
18741;DHT22;9499;52.472;13.448;2023-11-19T07:04:37;4.90;99.90
18741;DHT22;9499;52.472;13.448;2023-11-19T07:07:05;4.90;99.90
18741;DHT22;9499;52.472;13.448;2023-11-19T07:09:31;5.00;99.90
18741;DHT22;9499;52.472;13.448;2023-11-19T07:11:59;5.00;99.90
18741;DHT22;9499;52.472;13.448;2023-11-19T07:14:27;4.90;99.90
18741;DHT22;9499;52.472;13.448;2023-11-19T07:16:54;5.00;99.90
18741;DHT22;9499;52.472;13.448;2023-11-19T07:19:21;5.00;99.90
18741;DHT22;9499;52.472;13.448;2023-11-19T07:21:48;5.00;99.90
18741;DHT22;9499;52.472;13.448;2023-11-19T07:24:15;5.00;99.90
18741;DHT22;9499;52.472;13.448;2023-11-19T07:26:43;5.00;99.90
18741;DHT22;9499;52.472;13.448;2023-11-19T07:29:09;5.00;99.90
18741;DHT22;9499;52.472;13.448;2023-11-19T07:31:36;5.00;99.90
18741;DHT22;9499;52.472;13.448;2023-11-19T07:34:03;5.00;99.90
18741;DHT22;9499;52.472;13.448;2023-11-19T07:36:30;5.00;99.90
18741;DHT22;9499;52.472;13.448;2023-11-19T07:38:58;5.10;99.90
18741;DHT22;9499;52.472;13.448;2023-11-19T07:41:25;5.10;99.90
18741;DHT22;9499;52.472;13.448;2023-11-19T07:43:51;5.10;99.90
18741;DHT22;9499;52.472;13.448;2023-11-19T07:46:19;5.10;99.90
18741;DHT22;9499;52.472;13.448;2023-11-19T07:48:45;5.20;99.90
18741;DHT22;9499;52.472;13.448;2023-11-19T07:51:14;5.20;99.90
18741;DHT22;9499;52.472;13.448;2023-11-19T07:53:41;5.20;99.90
18741;DHT22;9499;52.472;13.448;2023-11-19T07:56:10;5.20;99.90
18741;DHT22;9499;52.472;13.448;2023-11-19T07:58:36;5.20;99.90
18741;DHT22;9499;52.472;13.448;2023-11-19T08:01:03;5.20;99.90
18741;DHT22;9499;52.472;13.448;2023-11-19T08:03:30;5.20;99.90
18741;DHT22;9499;52.472;13.448;2023-11-19T08:05:57;5.30;99.90
18741;DHT22;9499;52.472;13.448;2023-11-19T08:08:23;5.30;99.90
18741;DHT22;9499;52.472;13.448;2023-11-19T08:10:50;5.30;99.90
18741;DHT22;9499;52.472;13.448;2023-11-19T08:13:19;5.30;99.90
18741;DHT22;9499;52.472;13.448;2023-11-19T08:15:46;5.40;99.90
18741;DHT22;9499;52.472;13.448;2023-11-19T08:18:12;5.40;99.90
18741;DHT22;9499;52.472;13.448;2023-11-19T08:20:39;5.50;99.90
18741;DHT22;9499;52.472;13.448;2023-11-19T08:23:06;5.50;99.90
18741;DHT22;9499;52.472;13.448;2023-11-19T08:25:33;5.50;99.90
18741;DHT22;9499;52.472;13.448;2023-11-19T08:27:59;5.50;99.90
18741;DHT22;9499;52.472;13.448;2023-11-19T08:30:27;5.60;99.90
18741;DHT22;9499;52.472;13.448;2023-11-19T08:32:54;5.70;99.90
18741;DHT22;9499;52.472;13.448;2023-11-19T08:35:21;5.70;99.90
18741;DHT22;9499;52.472;13.448;2023-11-19T08:37:49;5.70;99.90
18741;DHT22;9499;52.472;13.448;2023-11-19T08:40:16;5.80;99.90
18741;DHT22;9499;52.472;13.448;2023-11-19T08:42:42;5.80;99.90
18741;DHT22;9499;52.472;13.448;2023-11-19T08:45:09;5.80;99.90
18741;DHT22;9499;52.472;13.448;2023-11-19T08:47:37;5.90;99.90
18741;DHT22;9499;52.472;13.448;2023-11-19T08:50:09;6.00;99.90
18741;DHT22;9499;52.472;13.448;2023-11-19T08:52:38;6.00;99.90
18741;DHT22;9499;52.472;13.448;2023-11-19T08:55:05;6.00;99.90
18741;DHT22;9499;52.472;13.448;2023-11-19T08:57:32;6.10;99.90
18741;DHT22;9499;52.472;13.448;2023-11-19T08:59:59;6.10;99.90
18741;DHT22;9499;52.472;13.448;2023-11-19T09:02:25;6.20;99.90
18741;DHT22;9499;52.472;13.448;2023-11-19T09:04:53;6.20;99.90
18741;DHT22;9499;52.472;13.448;2023-11-19T09:07:19;6.20;99.90
18741;DHT22;9499;52.472;13.448;2023-11-19T09:09:46;6.20;99.90
18741;DHT22;9499;52.472;13.448;2023-11-19T09:12:13;6.30;99.90
18741;DHT22;9499;52.472;13.448;2023-11-19T09:14:40;6.30;99.90
18741;DHT22;9499;52.472;13.448;2023-11-19T09:17:07;6.40;99.90
18741;DHT22;9499;52.472;13.448;2023-11-19T09:19:33;6.50;99.90
18741;DHT22;9499;52.472;13.448;2023-11-19T09:22:02;6.50;99.90
18741;DHT22;9499;52.472;13.448;2023-11-19T09:24:29;6.60;99.90
18741;DHT22;9499;52.472;13.448;2023-11-19T09:26:55;6.70;99.90
18741;DHT22;9499;52.472;13.448;2023-11-19T09:29:22;6.80;99.90
18741;DHT22;9499;52.472;13.448;2023-11-19T09:31:49;6.90;99.90
18741;DHT22;9499;52.472;13.448;2023-11-19T09:34:16;7.00;99.90
18741;DHT22;9499;52.472;13.448;2023-11-19T09:36:43;7.10;99.90
18741;DHT22;9499;52.472;13.448;2023-11-19T09:39:11;7.20;99.90
18741;DHT22;9499;52.472;13.448;2023-11-19T09:41:40;7.20;99.90
18741;DHT22;9499;52.472;13.448;2023-11-19T09:44:07;7.30;99.90
18741;DHT22;9499;52.472;13.448;2023-11-19T09:46:35;7.50;99.90
18741;DHT22;9499;52.472;13.448;2023-11-19T09:49:02;7.50;99.90
18741;DHT22;9499;52.472;13.448;2023-11-19T09:51:30;7.60;99.90
18741;DHT22;9499;52.472;13.448;2023-11-19T09:53:57;7.80;99.90
18741;DHT22;9499;52.472;13.448;2023-11-19T09:56:25;8.10;99.90
18741;DHT22;9499;52.472;13.448;2023-11-19T09:58:53;8.40;99.90
18741;DHT22;9499;52.472;13.448;2023-11-19T10:01:20;8.60;99.90
18741;DHT22;9499;52.472;13.448;2023-11-19T10:03:47;8.60;99.90
18741;DHT22;9499;52.472;13.448;2023-11-19T10:06:14;8.60;99.90
18741;DHT22;9499;52.472;13.448;2023-11-19T10:08:42;8.70;99.90
18741;DHT22;9499;52.472;13.448;2023-11-19T10:11:08;8.70;99.90
18741;DHT22;9499;52.472;13.448;2023-11-19T10:13:38;8.80;99.90
18741;DHT22;9499;52.472;13.448;2023-11-19T10:16:07;8.90;99.90
18741;DHT22;9499;52.472;13.448;2023-11-19T10:18:34;8.90;99.90
18741;DHT22;9499;52.472;13.448;2023-11-19T10:21:03;8.90;99.90
18741;DHT22;9499;52.472;13.448;2023-11-19T10:23:30;8.90;99.90
18741;DHT22;9499;52.472;13.448;2023-11-19T10:26:02;9.00;99.90
18741;DHT22;9499;52.472;13.448;2023-11-19T10:28:40;9.10;99.90
18741;DHT22;9499;52.472;13.448;2023-11-19T10:31:08;9.10;99.90
18741;DHT22;9499;52.472;13.448;2023-11-19T10:33:35;9.20;99.90
18741;DHT22;9499;52.472;13.448;2023-11-19T10:36:01;9.30;99.90
18741;DHT22;9499;52.472;13.448;2023-11-19T10:38:28;9.50;99.90
18741;DHT22;9499;52.472;13.448;2023-11-19T10:40:54;9.80;99.90
18741;DHT22;9499;52.472;13.448;2023-11-19T10:43:22;10.00;99.90
18741;DHT22;9499;52.472;13.448;2023-11-19T10:45:50;10.00;99.90
18741;DHT22;9499;52.472;13.448;2023-11-19T10:48:16;10.10;99.90
18741;DHT22;9499;52.472;13.448;2023-11-19T10:50:44;10.10;99.90
18741;DHT22;9499;52.472;13.448;2023-11-19T10:53:13;10.10;99.90
18741;DHT22;9499;52.472;13.448;2023-11-19T10:55:39;10.20;99.90
18741;DHT22;9499;52.472;13.448;2023-11-19T10:58:07;10.20;99.90
18741;DHT22;9499;52.472;13.448;2023-11-19T11:00:38;10.20;99.90
18741;DHT22;9499;52.472;13.448;2023-11-19T11:03:10;10.30;99.90
18741;DHT22;9499;52.472;13.448;2023-11-19T11:05:37;10.30;99.90
18741;DHT22;9499;52.472;13.448;2023-11-19T11:08:06;10.30;99.90
18741;DHT22;9499;52.472;13.448;2023-11-19T11:10:36;10.40;99.90
18741;DHT22;9499;52.472;13.448;2023-11-19T11:13:05;10.40;99.90
18741;DHT22;9499;52.472;13.448;2023-11-19T11:15:32;10.40;99.90
18741;DHT22;9499;52.472;13.448;2023-11-19T11:18:00;10.50;99.90
18741;DHT22;9499;52.472;13.448;2023-11-19T11:20:30;10.50;99.90
18741;DHT22;9499;52.472;13.448;2023-11-19T11:23:13;10.50;99.90
18741;DHT22;9499;52.472;13.448;2023-11-19T11:25:51;10.60;99.90
18741;DHT22;9499;52.472;13.448;2023-11-19T11:28:28;10.60;99.90
18741;DHT22;9499;52.472;13.448;2023-11-19T11:31:13;10.70;99.90
18741;DHT22;9499;52.472;13.448;2023-11-19T11:33:56;10.80;99.90
18741;DHT22;9499;52.472;13.448;2023-11-19T11:36:27;10.80;99.90
18741;DHT22;9499;52.472;13.448;2023-11-19T11:38:58;10.90;99.90
18741;DHT22;9499;52.472;13.448;2023-11-19T11:41:26;11.20;99.90
18741;DHT22;9499;52.472;13.448;2023-11-19T11:43:54;11.40;99.90
18741;DHT22;9499;52.472;13.448;2023-11-19T11:46:55;11.60;99.90
18741;DHT22;9499;52.472;13.448;2023-11-19T11:49:25;11.80;99.90
18741;DHT22;9499;52.472;13.448;2023-11-19T11:52:02;12.00;99.90
18741;DHT22;9499;52.472;13.448;2023-11-19T11:54:32;12.20;99.90
18741;DHT22;9499;52.472;13.448;2023-11-19T11:57:06;12.40;99.90
18741;DHT22;9499;52.472;13.448;2023-11-19T11:59:46;12.40;99.90
18741;DHT22;9499;52.472;13.448;2023-11-19T12:02:14;12.40;99.90
18741;DHT22;9499;52.472;13.448;2023-11-19T12:04:42;12.30;99.90
18741;DHT22;9499;52.472;13.448;2023-11-19T12:07:12;12.20;99.90
18741;DHT22;9499;52.472;13.448;2023-11-19T12:09:40;12.10;99.90
18741;DHT22;9499;52.472;13.448;2023-11-19T12:12:17;12.00;99.90
18741;DHT22;9499;52.472;13.448;2023-11-19T12:15:04;11.90;99.90
18741;DHT22;9499;52.472;13.448;2023-11-19T12:17:43;11.90;99.90
18741;DHT22;9499;52.472;13.448;2023-11-19T12:20:15;11.80;99.90
18741;DHT22;9499;52.472;13.448;2023-11-19T12:22:44;11.80;99.90
18741;DHT22;9499;52.472;13.448;2023-11-19T12:25:12;11.80;99.90
18741;DHT22;9499;52.472;13.448;2023-11-19T12:27:39;11.80;99.90
18741;DHT22;9499;52.472;13.448;2023-11-19T12:30:07;11.80;99.90
18741;DHT22;9499;52.472;13.448;2023-11-19T12:32:40;11.80;99.90
18741;DHT22;9499;52.472;13.448;2023-11-19T12:35:07;11.80;99.90
18741;DHT22;9499;52.472;13.448;2023-11-19T12:37:39;11.80;99.90
18741;DHT22;9499;52.472;13.448;2023-11-19T12:40:13;11.70;99.90
18741;DHT22;9499;52.472;13.448;2023-11-19T12:42:40;11.70;99.90
18741;DHT22;9499;52.472;13.448;2023-11-19T12:45:07;11.60;99.90
18741;DHT22;9499;52.472;13.448;2023-11-19T12:47:34;11.60;99.90
18741;DHT22;9499;52.472;13.448;2023-11-19T12:50:00;11.60;99.90
18741;DHT22;9499;52.472;13.448;2023-11-19T12:52:27;11.50;99.90
18741;DHT22;9499;52.472;13.448;2023-11-19T12:54:53;11.50;99.90
18741;DHT22;9499;52.472;13.448;2023-11-19T12:57:35;11.60;99.90
18741;DHT22;9499;52.472;13.448;2023-11-19T13:00:03;11.60;99.90
18741;DHT22;9499;52.472;13.448;2023-11-19T13:02:44;11.60;99.90
18741;DHT22;9499;52.472;13.448;2023-11-19T13:05:22;11.70;99.90
18741;DHT22;9499;52.472;13.448;2023-11-19T13:07:48;11.70;99.90
18741;DHT22;9499;52.472;13.448;2023-11-19T13:10:15;11.70;99.90
18741;DHT22;9499;52.472;13.448;2023-11-19T13:12:43;11.70;99.90
18741;DHT22;9499;52.472;13.448;2023-11-19T13:15:22;11.70;99.90
18741;DHT22;9499;52.472;13.448;2023-11-19T13:17:49;11.70;99.90
18741;DHT22;9499;52.472;13.448;2023-11-19T13:20:16;11.70;99.90
18741;DHT22;9499;52.472;13.448;2023-11-19T13:22:54;11.70;99.90
18741;DHT22;9499;52.472;13.448;2023-11-19T13:25:20;11.80;99.90
18741;DHT22;9499;52.472;13.448;2023-11-19T13:27:48;11.80;99.90
18741;DHT22;9499;52.472;13.448;2023-11-19T13:30:16;11.80;99.90
18741;DHT22;9499;52.472;13.448;2023-11-19T13:32:42;11.80;99.90
18741;DHT22;9499;52.472;13.448;2023-11-19T13:35:09;11.80;99.90
18741;DHT22;9499;52.472;13.448;2023-11-19T13:37:36;11.70;99.90
18741;DHT22;9499;52.472;13.448;2023-11-19T13:40:03;11.70;99.90
18741;DHT22;9499;52.472;13.448;2023-11-19T13:42:30;11.70;99.90
18741;DHT22;9499;52.472;13.448;2023-11-19T13:44:58;11.60;99.90
18741;DHT22;9499;52.472;13.448;2023-11-19T13:47:24;11.60;99.90
18741;DHT22;9499;52.472;13.448;2023-11-19T13:49:51;11.60;99.90
18741;DHT22;9499;52.472;13.448;2023-11-19T13:52:18;11.50;99.90
18741;DHT22;9499;52.472;13.448;2023-11-19T13:54:44;11.50;99.90
18741;DHT22;9499;52.472;13.448;2023-11-19T13:57:10;11.60;99.90
18741;DHT22;9499;52.472;13.448;2023-11-19T13:59:39;11.50;99.90
18741;DHT22;9499;52.472;13.448;2023-11-19T14:02:08;11.50;99.90
18741;DHT22;9499;52.472;13.448;2023-11-19T14:04:35;11.50;99.90
18741;DHT22;9499;52.472;13.448;2023-11-19T14:07:01;11.50;99.90
18741;DHT22;9499;52.472;13.448;2023-11-19T14:09:28;11.50;99.90
18741;DHT22;9499;52.472;13.448;2023-11-19T14:11:55;11.50;99.90
18741;DHT22;9499;52.472;13.448;2023-11-19T14:14:22;11.50;99.90
18741;DHT22;9499;52.472;13.448;2023-11-19T14:16:49;11.50;99.90
18741;DHT22;9499;52.472;13.448;2023-11-19T14:19:17;11.50;99.90
18741;DHT22;9499;52.472;13.448;2023-11-19T14:21:43;11.40;99.90
18741;DHT22;9499;52.472;13.448;2023-11-19T14:24:10;11.40;99.90
18741;DHT22;9499;52.472;13.448;2023-11-19T14:26:37;11.40;99.90
18741;DHT22;9499;52.472;13.448;2023-11-19T14:29:02;11.40;99.90
18741;DHT22;9499;52.472;13.448;2023-11-19T14:31:29;11.40;99.90
18741;DHT22;9499;52.472;13.448;2023-11-19T14:33:55;11.40;99.90
18741;DHT22;9499;52.472;13.448;2023-11-19T14:36:23;11.40;99.90
18741;DHT22;9499;52.472;13.448;2023-11-19T14:38:49;11.40;99.90
18741;DHT22;9499;52.472;13.448;2023-11-19T14:41:16;11.40;99.90
18741;DHT22;9499;52.472;13.448;2023-11-19T14:43:42;11.40;99.90
18741;DHT22;9499;52.472;13.448;2023-11-19T14:46:09;11.40;99.90
18741;DHT22;9499;52.472;13.448;2023-11-19T14:48:35;11.40;99.90
18741;DHT22;9499;52.472;13.448;2023-11-19T14:51:02;11.40;99.90
18741;DHT22;9499;52.472;13.448;2023-11-19T14:53:30;11.30;99.90
18741;DHT22;9499;52.472;13.448;2023-11-19T14:55:56;11.30;99.90
18741;DHT22;9499;52.472;13.448;2023-11-19T14:58:23;11.30;99.90
18741;DHT22;9499;52.472;13.448;2023-11-19T15:00:51;11.40;99.90
18741;DHT22;9499;52.472;13.448;2023-11-19T15:03:17;11.40;99.90
18741;DHT22;9499;52.472;13.448;2023-11-19T15:05:44;11.40;99.90
18741;DHT22;9499;52.472;13.448;2023-11-19T15:08:12;11.40;99.90
18741;DHT22;9499;52.472;13.448;2023-11-19T15:10:41;11.40;99.90
18741;DHT22;9499;52.472;13.448;2023-11-19T15:13:08;11.40;99.90
18741;DHT22;9499;52.472;13.448;2023-11-19T15:15:35;11.30;99.90
18741;DHT22;9499;52.472;13.448;2023-11-19T15:18:01;11.30;99.90
18741;DHT22;9499;52.472;13.448;2023-11-19T15:20:28;11.20;99.90
18741;DHT22;9499;52.472;13.448;2023-11-19T15:22:55;11.10;99.90
18741;DHT22;9499;52.472;13.448;2023-11-19T15:25:22;11.10;99.90
18741;DHT22;9499;52.472;13.448;2023-11-19T15:27:50;11.10;99.90
18741;DHT22;9499;52.472;13.448;2023-11-19T15:30:17;11.00;99.90
18741;DHT22;9499;52.472;13.448;2023-11-19T15:32:43;11.00;99.90
18741;DHT22;9499;52.472;13.448;2023-11-19T15:35:10;11.00;99.90
18741;DHT22;9499;52.472;13.448;2023-11-19T15:37:37;10.90;99.90
18741;DHT22;9499;52.472;13.448;2023-11-19T15:40:06;11.00;99.90
18741;DHT22;9499;52.472;13.448;2023-11-19T15:42:33;10.90;99.90
18741;DHT22;9499;52.472;13.448;2023-11-19T15:45:01;10.90;99.90
18741;DHT22;9499;52.472;13.448;2023-11-19T15:47:30;10.80;99.90
18741;DHT22;9499;52.472;13.448;2023-11-19T15:49:56;10.80;99.90